createdAt,value
2018-08-06T00:00:41.768Z,2.27
2018-08-06T00:03:09.396Z,2.20
2018-08-06T00:05:36.856Z,2.20
2018-08-06T00:08:04.937Z,2.03
2018-08-06T00:10:32.418Z,2.70
2018-08-06T00:12:59.802Z,2.17
2018-08-06T00:15:27.159Z,2.57
2018-08-06T00:17:54.628Z,2.07
2018-08-06T00:20:21.939Z,2.53
2018-08-06T00:22:49.283Z,2.43
2018-08-06T00:25:17.153Z,2.10
2018-08-06T00:27:44.950Z,2.30
2018-08-06T00:30:16.206Z,2.60
2018-08-06T00:32:44.409Z,2.20
2018-08-06T00:35:12.093Z,1.80
2018-08-06T00:37:39.689Z,2.40
2018-08-06T00:40:10.159Z,1.80
2018-08-06T00:42:37.550Z,2.90
2018-08-06T00:45:06.458Z,2.27
2018-08-06T00:47:33.769Z,2.27
2018-08-06T00:50:01.085Z,2.80
2018-08-06T00:52:28.452Z,2.50
2018-08-06T00:54:55.811Z,2.50
2018-08-06T00:57:23.143Z,2.27
2018-08-06T00:59:50.415Z,1.63
2018-08-06T01:02:17.735Z,1.63
2018-08-06T01:04:45.014Z,1.93
2018-08-06T01:07:12.358Z,2.20
2018-08-06T01:09:39.689Z,1.70
2018-08-06T01:12:06.994Z,1.80
2018-08-06T01:14:34.302Z,1.90
2018-08-06T01:17:01.552Z,1.97
2018-08-06T01:19:28.814Z,1.90
2018-08-06T01:21:56.139Z,2.07
2018-08-06T01:24:23.442Z,3.57
2018-08-06T01:26:50.774Z,2.40
2018-08-06T01:29:18.157Z,2.33
2018-08-06T01:31:45.462Z,2.17
2018-08-06T01:34:12.824Z,2.60
2018-08-06T01:36:40.231Z,3.10
2018-08-06T01:39:09.266Z,2.20
2018-08-06T01:41:36.716Z,2.37
2018-08-06T01:44:04.183Z,2.97
2018-08-06T01:46:31.558Z,2.57
2018-08-06T01:48:58.875Z,2.43
2018-08-06T01:51:26.317Z,2.50
2018-08-06T01:53:53.669Z,2.40
2018-08-06T01:56:20.976Z,2.37
2018-08-06T01:58:48.256Z,2.23
2018-08-06T02:01:15.621Z,2.40
2018-08-06T02:03:42.985Z,2.30
2018-08-06T02:06:10.263Z,2.40
2018-08-06T02:08:37.519Z,2.70
2018-08-06T02:11:04.917Z,2.60
2018-08-06T02:13:32.220Z,2.40
2018-08-06T02:16:00.437Z,2.50
2018-08-06T02:18:27.939Z,2.30
2018-08-06T02:20:55.293Z,2.50
2018-08-06T02:23:22.639Z,2.27
2018-08-06T02:25:49.923Z,2.63
2018-08-06T02:28:17.227Z,2.67
2018-08-06T02:30:44.473Z,2.97
2018-08-06T02:33:11.832Z,1.93
2018-08-06T02:35:39.202Z,2.37
2018-08-06T02:38:06.557Z,2.70
2018-08-06T02:40:33.842Z,2.63
2018-08-06T02:43:01.178Z,2.80
2018-08-06T02:45:28.495Z,2.27
2018-08-06T02:47:55.859Z,2.40
2018-08-06T02:50:23.167Z,2.80
2018-08-06T02:52:54.098Z,2.37
2018-08-06T02:55:21.315Z,2.50
2018-08-06T02:57:48.654Z,2.60
2018-08-06T03:00:16.756Z,2.30
2018-08-06T03:02:45.200Z,2.33
2018-08-06T03:05:14.009Z,2.77
2018-08-06T03:07:42.367Z,2.33
2018-08-06T03:10:09.937Z,2.77
2018-08-06T03:12:37.324Z,3.23
2018-08-06T03:15:05.751Z,2.80
2018-08-06T03:17:33.093Z,2.80
2018-08-06T03:20:00.453Z,2.70
2018-08-06T03:22:27.840Z,2.40
2018-08-06T03:24:55.243Z,2.40
2018-08-06T03:27:22.584Z,2.87
2018-08-06T03:29:49.893Z,2.97
2018-08-06T03:32:17.232Z,2.40
2018-08-06T03:34:44.865Z,2.13
2018-08-06T03:37:12.179Z,2.80
2018-08-06T03:39:39.532Z,2.80
2018-08-06T03:42:06.911Z,2.23
2018-08-06T03:44:34.251Z,2.80
2018-08-06T03:47:01.554Z,3.10
2018-08-06T03:49:28.983Z,2.30
2018-08-06T03:51:56.343Z,2.33
2018-08-06T03:54:23.673Z,2.13
2018-08-06T03:56:51.014Z,2.90
2018-08-06T03:59:18.292Z,3.13
2018-08-06T04:01:45.699Z,2.00
2018-08-06T04:04:13.068Z,2.70
2018-08-06T04:06:40.416Z,2.57
2018-08-06T04:09:08.183Z,2.17
2018-08-06T04:11:35.468Z,2.87
2018-08-06T04:14:02.874Z,2.50
2018-08-06T04:16:35.920Z,2.67
2018-08-06T04:19:03.237Z,2.63
2018-08-06T04:21:30.534Z,2.60
2018-08-06T04:23:57.770Z,2.80
2018-08-06T04:26:25.067Z,2.87
2018-08-06T04:28:52.354Z,2.43
2018-08-06T04:31:19.655Z,2.90
2018-08-06T04:33:46.914Z,2.20
2018-08-06T04:36:14.199Z,2.83
2018-08-06T04:38:41.584Z,2.60
2018-08-06T04:41:08.902Z,2.80
2018-08-06T04:43:36.204Z,2.23
2018-08-06T04:46:03.583Z,3.40
2018-08-06T04:48:30.909Z,2.53
2018-08-06T04:50:58.185Z,2.63
2018-08-06T04:53:25.503Z,2.43
2018-08-06T04:55:52.813Z,2.50
2018-08-06T04:58:20.187Z,2.80
2018-08-06T05:00:47.491Z,2.90
2018-08-06T05:03:14.825Z,3.27
2018-08-06T05:05:43.973Z,3.27
2018-08-06T05:08:11.456Z,3.20
2018-08-06T05:10:38.711Z,2.80
2018-08-06T05:13:05.988Z,3.00
2018-08-06T05:15:33.323Z,2.83
2018-08-06T05:18:00.582Z,3.30
2018-08-06T05:20:27.855Z,2.97
2018-08-06T05:22:55.163Z,3.00
2018-08-06T05:25:22.459Z,3.50
2018-08-06T05:27:49.796Z,3.03
2018-08-06T05:30:17.060Z,3.23
2018-08-06T05:35:37.150Z,3.97
2018-08-06T05:38:04.637Z,3.13
2018-08-06T05:40:32.000Z,3.33
2018-08-06T05:42:59.338Z,3.13
2018-08-06T05:45:26.715Z,3.93
2018-08-06T05:47:54.960Z,2.43
2018-08-06T05:50:22.379Z,2.80
2018-08-06T05:52:49.977Z,3.10
2018-08-06T05:55:17.212Z,3.40
2018-08-06T05:57:44.465Z,3.10
2018-08-06T06:00:15.355Z,2.80
2018-08-06T06:02:43.094Z,2.90
2018-08-06T06:05:10.623Z,3.20
2018-08-06T06:07:38.152Z,3.00
2018-08-06T06:10:06.620Z,3.70
2018-08-06T06:12:34.697Z,3.30
2018-08-06T06:15:02.260Z,2.60
2018-08-06T06:17:30.221Z,2.90
2018-08-06T06:19:57.539Z,2.70
2018-08-06T06:22:24.806Z,3.37
2018-08-06T06:24:52.129Z,3.13
2018-08-06T06:27:19.606Z,2.50
2018-08-06T06:29:46.976Z,3.10
2018-08-06T06:32:14.332Z,3.30
2018-08-06T06:34:41.857Z,2.97
2018-08-06T06:37:09.092Z,3.33
2018-08-06T06:39:36.408Z,2.57
2018-08-06T06:42:03.748Z,2.73
2018-08-06T06:44:30.989Z,3.10
2018-08-06T06:46:58.293Z,2.80
2018-08-06T06:49:25.580Z,3.90
2018-08-06T06:51:52.924Z,2.33
2018-08-06T06:54:20.264Z,2.83
2018-08-06T06:56:47.551Z,2.97
2018-08-06T06:59:14.843Z,2.60
2018-08-06T07:01:42.208Z,3.10
2018-08-06T07:04:09.522Z,2.70
2018-08-06T07:06:36.817Z,3.60
2018-08-06T07:09:07.138Z,3.10
2018-08-06T07:11:34.442Z,2.33
2018-08-06T07:14:01.869Z,2.80
2018-08-06T07:16:29.111Z,3.30
2018-08-06T07:18:56.413Z,2.27
2018-08-06T07:21:23.725Z,2.60
2018-08-06T07:23:51.078Z,2.70
2018-08-06T07:26:18.408Z,2.93
2018-08-06T07:28:45.811Z,2.80
2018-08-06T07:31:13.096Z,2.90
2018-08-06T07:33:40.507Z,2.37
2018-08-06T07:36:07.770Z,2.60
2018-08-06T07:38:35.082Z,2.90
2018-08-06T07:41:02.386Z,2.83
2018-08-06T07:43:29.717Z,2.97
2018-08-06T07:45:56.981Z,3.20
2018-08-06T07:48:24.334Z,3.03
2018-08-06T07:50:51.613Z,2.90
2018-08-06T07:53:18.928Z,3.10
2018-08-06T07:55:46.191Z,3.87
2018-08-06T07:58:13.650Z,2.40
2018-08-06T08:00:41.012Z,3.10
2018-08-06T08:03:08.288Z,3.17
2018-08-06T08:05:35.550Z,2.67
2018-08-06T08:08:02.855Z,2.87
2018-08-06T08:10:30.195Z,2.70
2018-08-06T08:12:57.601Z,2.93
2018-08-06T08:15:25.995Z,3.63
2018-08-06T08:17:53.845Z,3.80
2018-08-06T08:20:22.254Z,2.97
2018-08-06T08:22:50.076Z,3.60
2018-08-06T08:25:19.348Z,3.20
2018-08-06T08:27:46.796Z,3.23
2018-08-06T08:30:15.280Z,3.00
2018-08-06T08:32:42.637Z,3.60
2018-08-06T08:35:10.850Z,3.23
2018-08-06T08:37:38.252Z,3.20
2018-08-06T08:40:10.877Z,3.80
2018-08-06T08:42:38.281Z,3.60
2018-08-06T08:45:09.253Z,3.30
2018-08-06T08:47:36.665Z,3.70
2018-08-06T08:50:04.667Z,3.77
2018-08-06T08:52:32.157Z,3.10
2018-08-06T08:54:59.468Z,3.10
2018-08-06T08:57:26.884Z,3.10
2018-08-06T08:59:54.238Z,4.40
2018-08-06T09:02:22.040Z,3.33
2018-08-06T09:04:49.481Z,3.20
2018-08-06T09:07:16.921Z,3.57
2018-08-06T09:09:44.270Z,4.60
2018-08-06T09:12:11.592Z,3.00
2018-08-06T09:14:38.952Z,4.40
2018-08-06T09:17:06.413Z,3.20
2018-08-06T09:19:33.681Z,2.97
2018-08-06T09:22:01.022Z,2.47
2018-08-06T09:24:28.378Z,2.90
2018-08-06T09:26:55.700Z,3.87
2018-08-06T09:29:23.088Z,3.33
2018-08-06T09:31:50.503Z,3.10
2018-08-06T09:34:17.937Z,3.53
2018-08-06T09:36:45.412Z,3.43
2018-08-06T09:39:12.965Z,3.57
2018-08-06T09:41:40.389Z,3.80
2018-08-06T09:44:08.087Z,4.20
2018-08-06T09:46:36.456Z,2.83
2018-08-06T09:49:04.359Z,3.47
2018-08-06T09:51:31.854Z,4.17
2018-08-06T09:53:59.366Z,3.47
2018-08-06T09:56:26.908Z,3.47
2018-08-06T09:58:54.337Z,3.40
2018-08-06T10:01:58.105Z,3.93
2018-08-06T10:04:26.214Z,4.27
2018-08-06T10:06:53.828Z,3.13
2018-08-06T10:09:21.286Z,3.63
2018-08-06T10:11:48.762Z,3.70
2018-08-06T10:14:16.376Z,3.27
2018-08-06T10:16:43.722Z,3.57
2018-08-06T10:19:11.274Z,3.70
2018-08-06T10:21:38.585Z,4.30
2018-08-06T10:24:06.113Z,4.73
2018-08-06T10:26:33.553Z,4.20
2018-08-06T10:29:00.888Z,4.40
2018-08-06T10:31:28.216Z,4.13
2018-08-06T10:33:55.497Z,4.03
2018-08-06T10:36:23.058Z,3.50
2018-08-06T10:38:50.331Z,3.37
2018-08-06T10:41:17.665Z,3.67
2018-08-06T10:43:45.029Z,4.00
2018-08-06T10:46:12.366Z,3.50
2018-08-06T10:48:39.680Z,3.43
2018-08-06T10:51:07.021Z,3.90
2018-08-06T10:53:34.388Z,3.93
2018-08-06T10:56:01.697Z,4.53
2018-08-06T10:58:29.041Z,3.63
2018-08-06T11:00:56.357Z,3.20
2018-08-06T11:03:23.724Z,3.83
2018-08-06T11:05:51.171Z,3.87
2018-08-06T11:08:18.644Z,3.13
2018-08-06T11:10:46.121Z,3.73
2018-08-06T11:13:13.514Z,4.27
2018-08-06T11:15:40.957Z,3.33
2018-08-06T11:18:08.301Z,4.00
2018-08-06T11:20:35.716Z,3.40
2018-08-06T11:23:03.041Z,3.90
2018-08-06T11:25:30.416Z,3.57
2018-08-06T11:27:57.774Z,4.10
2018-08-06T11:30:25.070Z,3.80
2018-08-06T11:32:53.130Z,3.80
2018-08-06T11:35:20.433Z,3.73
2018-08-06T11:37:47.772Z,3.20
2018-08-06T11:40:15.916Z,3.20
2018-08-06T11:45:35.591Z,3.90
2018-08-06T11:48:03.032Z,4.40
2018-08-06T11:50:30.397Z,4.27
2018-08-06T11:52:57.692Z,4.00
2018-08-06T11:55:24.984Z,3.60
2018-08-06T11:57:52.329Z,4.00
2018-08-06T12:00:21.460Z,4.57
2018-08-06T12:02:48.810Z,3.23
2018-08-06T12:05:16.489Z,3.90
2018-08-06T12:07:43.787Z,3.90
2018-08-06T12:10:13.040Z,4.17
2018-08-06T12:12:40.614Z,4.13
2018-08-06T12:15:08.817Z,4.23
2018-08-06T12:17:36.530Z,4.30
2018-08-06T12:20:06.598Z,4.37
2018-08-06T12:22:33.920Z,4.53
2018-08-06T12:25:01.293Z,3.70
2018-08-06T12:27:28.689Z,4.03
2018-08-06T12:29:56.072Z,4.10
2018-08-06T12:32:23.367Z,4.40
2018-08-06T12:34:50.691Z,4.10
2018-08-06T12:37:17.954Z,4.60
2018-08-06T12:39:45.371Z,4.00
2018-08-06T12:42:12.631Z,3.57
2018-08-06T12:44:39.920Z,4.40
2018-08-06T12:47:07.207Z,4.20
2018-08-06T12:49:34.580Z,4.10
2018-08-06T12:52:01.840Z,3.97
2018-08-06T12:54:29.113Z,3.90
2018-08-06T12:56:56.449Z,4.10
2018-08-06T12:59:23.709Z,4.07
2018-08-06T13:01:51.120Z,3.93
2018-08-06T13:04:18.442Z,5.40
2018-08-06T13:06:45.752Z,4.07
2018-08-06T13:09:13.063Z,4.33
2018-08-06T13:11:40.443Z,4.47
2018-08-06T13:14:07.819Z,4.10
2018-08-06T13:16:35.166Z,3.43
2018-08-06T13:19:02.508Z,4.10
2018-08-06T13:21:30.231Z,4.30
2018-08-06T13:23:57.550Z,4.30
2018-08-06T13:26:24.848Z,4.00
2018-08-06T13:28:52.177Z,4.30
2018-08-06T13:31:19.566Z,4.63
2018-08-06T13:33:46.847Z,4.17
2018-08-06T13:36:14.229Z,4.97
2018-08-06T13:38:41.723Z,3.83
2018-08-06T13:41:09.194Z,4.70
2018-08-06T13:43:36.607Z,3.60
2018-08-06T13:46:03.914Z,4.00
2018-08-06T13:48:31.292Z,3.40
2018-08-06T13:50:58.637Z,3.83
2018-08-06T13:53:26.205Z,3.60
2018-08-06T13:55:53.476Z,3.60
2018-08-06T13:58:20.812Z,3.90
2018-08-06T14:00:48.164Z,3.60
2018-08-06T14:03:15.499Z,3.60
2018-08-06T14:05:42.854Z,3.70
2018-08-06T14:08:10.187Z,3.57
2018-08-06T14:10:37.431Z,3.57
2018-08-06T14:13:04.776Z,3.63
2018-08-06T14:15:32.024Z,3.10
2018-08-06T14:17:59.239Z,3.63
2018-08-06T14:20:26.616Z,3.33
2018-08-06T14:22:54.017Z,3.80
2018-08-06T14:25:21.378Z,3.30
2018-08-06T14:27:48.702Z,3.50
2018-08-06T14:30:16.606Z,3.40
2018-08-06T14:32:44.419Z,3.47
2018-08-06T14:35:12.327Z,3.67
2018-08-06T14:37:39.711Z,3.83
2018-08-06T14:40:10.079Z,5.00
2018-08-06T14:42:37.393Z,3.57
2018-08-06T14:45:05.719Z,3.90
2018-08-06T14:47:33.021Z,3.83
2018-08-06T14:50:00.351Z,3.27
2018-08-06T14:52:27.650Z,3.30
2018-08-06T14:54:55.008Z,3.70
2018-08-06T14:57:22.335Z,3.50
2018-08-06T14:59:49.619Z,3.57
2018-08-06T15:02:17.101Z,5.10
2018-08-06T15:04:44.390Z,3.50
2018-08-06T15:07:11.837Z,4.00
2018-08-06T15:09:39.128Z,3.90
2018-08-06T15:12:06.535Z,4.00
2018-08-06T15:14:33.953Z,3.53
2018-08-06T15:17:01.310Z,3.00
2018-08-06T15:19:28.635Z,3.10
2018-08-06T15:21:55.997Z,3.53
2018-08-06T15:24:23.406Z,3.90
2018-08-06T15:26:50.736Z,3.37
2018-08-06T15:29:18.041Z,3.97
2018-08-06T15:31:45.352Z,3.17
2018-08-06T15:34:12.799Z,3.57
2018-08-06T15:36:40.174Z,3.63
2018-08-06T15:39:10.918Z,3.90
2018-08-06T15:41:38.236Z,3.70
2018-08-06T15:44:05.767Z,3.40
2018-08-06T15:46:33.149Z,3.50
2018-08-06T15:49:00.464Z,3.50
2018-08-06T15:51:27.866Z,4.20
2018-08-06T15:53:55.183Z,3.53
2018-08-06T15:56:22.517Z,3.90
2018-08-06T15:58:49.895Z,4.37
2018-08-06T16:01:17.160Z,4.17
2018-08-06T16:03:44.514Z,4.13
2018-08-06T16:06:11.726Z,3.80
2018-08-06T16:08:39.112Z,3.60
2018-08-06T16:11:06.554Z,4.30
2018-08-06T16:13:33.876Z,4.07
2018-08-06T16:16:01.169Z,3.90
2018-08-06T16:18:28.477Z,4.33
2018-08-06T16:20:55.783Z,4.00
2018-08-06T16:23:23.132Z,3.40
2018-08-06T16:25:50.438Z,5.00
2018-08-06T16:28:17.732Z,4.20
2018-08-06T16:30:45.016Z,3.60
2018-08-06T16:33:12.390Z,4.00
2018-08-06T16:35:39.714Z,4.60
2018-08-06T16:38:07.189Z,5.03
2018-08-06T16:40:34.347Z,3.40
2018-08-06T16:43:01.695Z,3.80
2018-08-06T16:45:29.062Z,4.40
2018-08-06T16:47:56.363Z,4.50
2018-08-06T16:50:23.687Z,4.47
2018-08-06T16:52:51.329Z,4.43
2018-08-06T16:55:18.457Z,4.97
2018-08-06T16:57:45.768Z,3.97
2018-08-06T17:00:16.232Z,3.80
2018-08-06T17:02:43.789Z,4.80
2018-08-06T17:05:13.276Z,4.23
2018-08-06T17:07:42.264Z,4.33
2018-08-06T17:10:12.094Z,4.50
2018-08-06T17:12:39.786Z,4.33
2018-08-06T17:15:08.381Z,4.57
2018-08-06T17:17:35.664Z,3.77
2018-08-06T17:20:03.726Z,4.70
2018-08-06T17:22:31.527Z,5.73
2018-08-06T17:24:58.830Z,4.40
2018-08-06T17:27:26.113Z,4.40
2018-08-06T17:29:53.435Z,4.40
2018-08-06T17:32:20.758Z,4.50
2018-08-06T17:34:48.106Z,4.40
2018-08-06T17:37:15.400Z,4.20
2018-08-06T17:39:42.707Z,4.50
2018-08-06T17:42:13.200Z,4.03
2018-08-06T17:44:40.535Z,4.43
2018-08-06T17:47:07.848Z,4.80
2018-08-06T17:49:37.579Z,4.53
2018-08-06T17:52:04.920Z,4.17
2018-08-06T17:54:32.229Z,4.23
2018-08-06T17:56:59.539Z,4.53
2018-08-06T17:59:26.891Z,4.33
2018-08-06T18:01:54.235Z,3.97
2018-08-06T18:04:21.529Z,3.80
2018-08-06T18:06:48.810Z,4.37
2018-08-06T18:09:16.132Z,3.47
2018-08-06T18:11:43.471Z,4.63
2018-08-06T18:14:10.822Z,3.80
2018-08-06T18:16:38.091Z,3.83
2018-08-06T18:19:05.450Z,4.70
2018-08-06T18:21:32.742Z,4.87
2018-08-06T18:24:00.114Z,4.03
2018-08-06T18:26:27.476Z,3.70
2018-08-06T18:28:54.773Z,4.30
2018-08-06T18:31:22.101Z,4.17
2018-08-06T18:33:49.480Z,4.30
2018-08-06T18:36:16.723Z,3.87
2018-08-06T18:38:43.996Z,4.10
2018-08-06T18:41:11.356Z,4.53
2018-08-06T18:43:38.787Z,4.43
2018-08-06T18:46:06.085Z,4.33
2018-08-06T18:48:33.447Z,4.03
2018-08-06T18:51:00.691Z,4.43
2018-08-06T18:53:28.011Z,4.23
2018-08-06T18:55:55.401Z,3.70
2018-08-06T18:58:22.693Z,4.70
2018-08-06T19:00:49.948Z,4.13
2018-08-06T19:03:17.337Z,4.47
2018-08-06T19:05:44.641Z,4.83
2018-08-06T19:08:11.921Z,4.37
2018-08-06T19:10:39.221Z,4.67
2018-08-06T19:13:12.231Z,4.40
2018-08-06T19:15:39.649Z,4.70
2018-08-06T19:18:12.654Z,4.10
2018-08-06T19:20:40.084Z,4.50
2018-08-06T19:23:07.979Z,4.57
2018-08-06T19:25:35.334Z,5.17
2018-08-06T19:28:02.721Z,4.67
2018-08-06T19:30:35.669Z,5.10
2018-08-06T19:33:03.009Z,4.87
2018-08-06T19:35:30.450Z,4.80
2018-08-06T19:37:57.692Z,4.83
2018-08-06T19:40:25.966Z,4.60
2018-08-06T19:42:58.980Z,4.97
2018-08-06T19:45:26.333Z,6.00
2018-08-06T19:47:53.670Z,5.00
2018-08-06T19:50:26.658Z,4.30
2018-08-06T19:52:53.930Z,4.83
2018-08-06T19:55:26.916Z,5.30
2018-08-06T19:57:54.291Z,4.83
2018-08-06T20:00:21.598Z,5.70
2018-08-06T20:02:48.861Z,4.83
2018-08-06T20:05:16.146Z,4.77
2018-08-06T20:07:43.521Z,4.13
2018-08-06T20:10:12.351Z,4.70
2018-08-06T20:12:39.780Z,4.33
2018-08-06T20:15:09.782Z,5.57
2018-08-06T20:17:37.109Z,5.73
2018-08-06T20:20:05.358Z,4.70
2018-08-06T20:22:32.685Z,5.17
2018-08-06T20:25:00.023Z,5.13
2018-08-06T20:27:27.315Z,5.37
2018-08-06T20:29:54.665Z,5.30
2018-08-06T20:32:21.993Z,5.60
2018-08-06T20:34:49.356Z,5.67
2018-08-06T20:37:16.571Z,5.57
2018-08-06T20:39:43.903Z,5.73
2018-08-06T20:42:11.236Z,5.30
2018-08-06T20:44:40.842Z,4.77
2018-08-06T20:47:08.204Z,5.80
2018-08-06T20:49:35.621Z,6.00
2018-08-06T20:52:03.029Z,5.33
2018-08-06T20:54:30.360Z,5.37
2018-08-06T20:56:57.716Z,5.80
2018-08-06T20:59:25.061Z,4.60
2018-08-06T21:01:52.382Z,5.33
2018-08-06T21:04:19.614Z,4.90
2018-08-06T21:06:46.917Z,4.90
2018-08-06T21:09:14.260Z,5.80
2018-08-06T21:11:41.579Z,5.97
2018-08-06T21:14:08.959Z,5.57
2018-08-06T21:16:36.238Z,5.30
2018-08-06T21:19:03.640Z,6.63
2018-08-06T21:21:31.004Z,6.00
2018-08-06T21:23:58.338Z,6.20
2018-08-06T21:26:25.693Z,5.30
2018-08-06T21:28:53.000Z,5.90
2018-08-06T21:31:20.335Z,5.80
2018-08-06T21:33:47.659Z,5.67
2018-08-06T21:36:14.938Z,5.90
2018-08-06T21:38:42.260Z,5.53
2018-08-06T21:41:09.619Z,5.90
2018-08-06T21:43:36.991Z,5.70
2018-08-06T21:46:04.351Z,5.70
2018-08-06T21:48:31.759Z,6.80
2018-08-06T21:50:59.109Z,5.60
2018-08-06T21:53:26.393Z,6.10
2018-08-06T21:55:53.670Z,5.33
2018-08-06T21:58:20.928Z,5.77
2018-08-06T22:00:48.244Z,6.43
2018-08-06T22:03:16.950Z,6.03
2018-08-06T22:05:44.769Z,6.30
2018-08-06T22:08:12.210Z,6.40
2018-08-06T22:10:39.703Z,5.57
2018-08-06T22:13:07.791Z,5.70
2018-08-06T22:15:35.201Z,5.93
2018-08-06T22:18:02.592Z,6.50
2018-08-06T22:20:30.007Z,5.60
2018-08-06T22:22:57.282Z,6.67
2018-08-06T22:25:24.781Z,7.10
2018-08-06T22:27:52.173Z,5.27
2018-08-06T22:30:19.523Z,5.80
2018-08-06T22:32:46.806Z,6.07
2018-08-06T22:35:14.093Z,5.73
2018-08-06T22:37:41.903Z,6.33
2018-08-06T22:40:10.895Z,6.03
2018-08-06T22:42:38.504Z,6.37
2018-08-06T22:45:06.607Z,6.23
2018-08-06T22:47:34.048Z,6.30
2018-08-06T22:50:02.216Z,6.57
2018-08-06T22:52:29.557Z,6.90
2018-08-06T22:54:56.831Z,6.73
2018-08-06T22:57:24.263Z,6.87
2018-08-06T22:59:51.571Z,6.80
2018-08-06T23:02:18.965Z,5.93
2018-08-06T23:04:46.420Z,6.60
2018-08-06T23:07:13.773Z,7.33
2018-08-06T23:09:41.044Z,5.90
2018-08-06T23:12:08.443Z,5.50
2018-08-06T23:14:35.806Z,5.73
2018-08-06T23:17:03.147Z,6.63
2018-08-06T23:19:30.499Z,6.17
2018-08-06T23:21:57.783Z,7.10
2018-08-06T23:24:25.070Z,6.63
2018-08-06T23:26:52.403Z,6.73
2018-08-06T23:29:19.651Z,6.53
2018-08-06T23:31:47.063Z,6.93
2018-08-06T23:34:14.362Z,6.27
2018-08-06T23:36:41.647Z,6.83
2018-08-06T23:39:09.591Z,6.73
2018-08-06T23:41:37.125Z,6.37
2018-08-06T23:44:04.488Z,7.27
2018-08-06T23:46:31.808Z,7.43
2018-08-06T23:48:59.119Z,7.37
2018-08-06T23:51:26.405Z,6.73
2018-08-06T23:53:53.768Z,6.00
2018-08-06T23:56:21.082Z,7.00
2018-08-06T23:58:48.427Z,6.80
